sensor_id;sensor_type;location;lat;lon;timestamp;pressure;altitude;pressure_sealevel;temperature;humidity
35918;BME280;22011;59.912;30.300;2023-03-01T00:01:36;101267.34;;;-1.27;51.53
35918;BME280;22011;59.912;30.300;2023-03-01T00:04:04;101272.56;;;-1.27;51.49
35918;BME280;22011;59.912;30.300;2023-03-01T00:06:32;101277.78;;;-1.27;51.67
35918;BME280;22011;59.912;30.300;2023-03-01T00:08:59;101266.88;;;-1.18;51.68
35918;BME280;22011;59.912;30.300;2023-03-01T00:11:28;101262.31;;;-1.15;51.17
35918;BME280;22011;59.912;30.300;2023-03-01T00:13:57;101276.16;;;-1.13;52.16
35918;BME280;22011;59.912;30.300;2023-03-01T00:16:27;101273.88;;;-1.19;51.28
35918;BME280;22011;59.912;30.300;2023-03-01T00:18:57;101278.25;;;-1.19;51.44
35918;BME280;22011;59.912;30.300;2023-03-01T00:21:25;101282.03;;;-1.25;51.74
35918;BME280;22011;59.912;30.300;2023-03-01T00:23:53;101280.47;;;-1.29;51.43
35918;BME280;22011;59.912;30.300;2023-03-01T00:26:22;101284.72;;;-1.26;52.20
35918;BME280;22011;59.912;30.300;2023-03-01T00:28:51;101284.94;;;-1.31;52.38
35918;BME280;22011;59.912;30.300;2023-03-01T00:31:20;101285.94;;;-1.34;52.73
35918;BME280;22011;59.912;30.300;2023-03-01T00:33:48;101289.16;;;-1.28;52.58
35918;BME280;22011;59.912;30.300;2023-03-01T00:36:17;101274.19;;;-1.25;53.22
35918;BME280;22011;59.912;30.300;2023-03-01T00:38:45;101280.47;;;-1.29;52.46
35918;BME280;22011;59.912;30.300;2023-03-01T00:41:15;101286.41;;;-1.25;52.93
35918;BME280;22011;59.912;30.300;2023-03-01T00:43:43;101279.41;;;-1.25;53.17
35918;BME280;22011;59.912;30.300;2023-03-01T00:46:12;101281.88;;;-1.22;53.41
35918;BME280;22011;59.912;30.300;2023-03-01T00:48:40;101271.41;;;-1.22;52.93
35918;BME280;22011;59.912;30.300;2023-03-01T00:51:09;101281.03;;;-1.22;53.86
35918;BME280;22011;59.912;30.300;2023-03-01T00:53:39;101283.56;;;-1.21;53.28
35918;BME280;22011;59.912;30.300;2023-03-01T00:56:08;101276.41;;;-1.17;53.23
35918;BME280;22011;59.912;30.300;2023-03-01T00:58:36;101275.16;;;-1.10;53.35
35918;BME280;22011;59.912;30.300;2023-03-01T01:01:07;101277.28;;;-1.01;53.73
35918;BME280;22011;59.912;30.300;2023-03-01T01:03:44;101275.66;;;-1.04;53.36
35918;BME280;22011;59.912;30.300;2023-03-01T01:06:20;101271.50;;;-0.90;53.23
35918;BME280;22011;59.912;30.300;2023-03-01T01:08:50;101270.72;;;-0.92;54.87
35918;BME280;22011;59.912;30.300;2023-03-01T01:11:18;101270.81;;;-0.94;53.37
35918;BME280;22011;59.912;30.300;2023-03-01T01:13:47;101272.41;;;-0.91;53.66
35918;BME280;22011;59.912;30.300;2023-03-01T01:16:16;101272.59;;;-0.94;53.61
35918;BME280;22011;59.912;30.300;2023-03-01T01:18:45;101271.25;;;-0.86;52.62
35918;BME280;22011;59.912;30.300;2023-03-01T01:21:14;101281.50;;;-0.81;53.86
35918;BME280;22011;59.912;30.300;2023-03-01T01:23:43;101274.56;;;-0.82;53.18
35918;BME280;22011;59.912;30.300;2023-03-01T01:26:14;101283.25;;;-0.82;53.70
35918;BME280;22011;59.912;30.300;2023-03-01T01:28:42;101290.91;;;-0.61;53.34
35918;BME280;22011;59.912;30.300;2023-03-01T01:31:09;101276.09;;;-0.78;53.35
35918;BME280;22011;59.912;30.300;2023-03-01T01:33:37;101278.94;;;-0.83;53.47
35918;BME280;22011;59.912;30.300;2023-03-01T01:36:06;101279.78;;;-0.82;54.26
35918;BME280;22011;59.912;30.300;2023-03-01T01:38:34;101279.94;;;-0.85;53.62
35918;BME280;22011;59.912;30.300;2023-03-01T01:41:02;101280.13;;;-0.88;53.59
35918;BME280;22011;59.912;30.300;2023-03-01T01:43:33;101278.25;;;-0.86;53.68
35918;BME280;22011;59.912;30.300;2023-03-01T01:46:04;101284.50;;;-0.89;53.97
35918;BME280;22011;59.912;30.300;2023-03-01T01:48:38;101280.81;;;-0.85;54.13
35918;BME280;22011;59.912;30.300;2023-03-01T01:51:10;101283.66;;;-0.89;54.42
35918;BME280;22011;59.912;30.300;2023-03-01T01:53:39;101284.56;;;-0.90;54.61
35918;BME280;22011;59.912;30.300;2023-03-01T01:56:11;101283.41;;;-0.85;54.63
35918;BME280;22011;59.912;30.300;2023-03-01T01:58:43;101287.81;;;-0.85;54.19
35918;BME280;22011;59.912;30.300;2023-03-01T02:01:13;101283.66;;;-0.89;53.87
35918;BME280;22011;59.912;30.300;2023-03-01T02:03:42;101287.19;;;-0.90;54.67
35918;BME280;22011;59.912;30.300;2023-03-01T02:06:15;101288.13;;;-0.91;55.30
35918;BME280;22011;59.912;30.300;2023-03-01T02:08:46;101292.91;;;-1.00;54.68
35918;BME280;22011;59.912;30.300;2023-03-01T02:11:14;101295.34;;;-0.96;54.08
35918;BME280;22011;59.912;30.300;2023-03-01T02:13:43;101293.59;;;-0.96;55.00
35918;BME280;22011;59.912;30.300;2023-03-01T02:16:14;101294.28;;;-0.92;54.86
35918;BME280;22011;59.912;30.300;2023-03-01T02:18:43;101296.13;;;-0.94;55.18
35918;BME280;22011;59.912;30.300;2023-03-01T02:21:24;101309.81;;;-0.89;55.03
35918;BME280;22011;59.912;30.300;2023-03-01T02:23:54;101305.69;;;-1.11;54.65
35918;BME280;22011;59.912;30.300;2023-03-01T02:26:29;101295.78;;;-1.04;55.48
35918;BME280;22011;59.912;30.300;2023-03-01T02:29:01;101302.00;;;-1.07;55.19
35918;BME280;22011;59.912;30.300;2023-03-01T02:31:31;101302.31;;;-1.13;54.69
35918;BME280;22011;59.912;30.300;2023-03-01T02:34:13;101308.25;;;-1.09;55.01
35918;BME280;22011;59.912;30.300;2023-03-01T02:36:44;101302.00;;;-1.07;55.41
35918;BME280;22011;59.912;30.300;2023-03-01T02:39:17;101304.53;;;-1.05;55.42
35918;BME280;22011;59.912;30.300;2023-03-01T02:41:49;101312.56;;;-1.08;55.26
35918;BME280;22011;59.912;30.300;2023-03-01T02:44:19;101307.25;;;-1.07;55.29
35918;BME280;22011;59.912;30.300;2023-03-01T02:46:48;101305.41;;;-1.05;54.85
35918;BME280;22011;59.912;30.300;2023-03-01T02:49:20;101305.06;;;-0.99;55.33
35918;BME280;22011;59.912;30.300;2023-03-01T02:51:56;101303.19;;;-0.96;55.69
35918;BME280;22011;59.912;30.300;2023-03-01T02:54:28;101307.66;;;-0.81;55.48
35918;BME280;22011;59.912;30.300;2023-03-01T02:56:57;101305.56;;;-1.08;54.88
35918;BME280;22011;59.912;30.300;2023-03-01T02:59:30;101312.47;;;-1.07;55.58
35918;BME280;22011;59.912;30.300;2023-03-01T03:02:00;101306.69;;;-1.13;55.73
35918;BME280;22011;59.912;30.300;2023-03-01T03:04:27;101306.00;;;-1.17;55.83
35918;BME280;22011;59.912;30.300;2023-03-01T03:06:55;101313.78;;;-1.15;55.12
35918;BME280;22011;59.912;30.300;2023-03-01T03:09:23;101306.78;;;-1.15;54.93
35918;BME280;22011;59.912;30.300;2023-03-01T03:11:50;101311.31;;;-1.18;55.42
35918;BME280;22011;59.912;30.300;2023-03-01T03:14:18;101305.41;;;-1.22;55.69
35918;BME280;22011;59.912;30.300;2023-03-01T03:16:50;101304.47;;;-1.21;56.40
35918;BME280;22011;59.912;30.300;2023-03-01T03:19:18;101297.31;;;-1.17;56.24
35918;BME280;22011;59.912;30.300;2023-03-01T03:21:46;101297.09;;;-1.13;55.16
35918;BME280;22011;59.912;30.300;2023-03-01T03:24:14;101299.63;;;-1.11;55.88
35918;BME280;22011;59.912;30.300;2023-03-01T03:26:41;101307.41;;;-1.10;55.63
35918;BME280;22011;59.912;30.300;2023-03-01T03:29:08;101319.00;;;-1.15;55.61
35918;BME280;22011;59.912;30.300;2023-03-01T03:31:36;101313.09;;;-1.19;55.28
35918;BME280;22011;59.912;30.300;2023-03-01T03:34:05;101320.00;;;-1.18;56.46
35918;BME280;22011;59.912;30.300;2023-03-01T03:36:32;101312.16;;;-1.18;55.91
35918;BME280;22011;59.912;30.300;2023-03-01T03:39:00;101311.38;;;-1.20;56.51
35918;BME280;22011;59.912;30.300;2023-03-01T03:41:27;101315.94;;;-1.23;55.99
35918;BME280;22011;59.912;30.300;2023-03-01T03:43:55;101319.84;;;-1.32;55.66
35918;BME280;22011;59.912;30.300;2023-03-01T03:46:22;101318.59;;;-1.42;55.91
35918;BME280;22011;59.912;30.300;2023-03-01T03:48:49;101319.59;;;-1.45;56.40
35918;BME280;22011;59.912;30.300;2023-03-01T03:51:18;101324.19;;;-1.50;56.85
35918;BME280;22011;59.912;30.300;2023-03-01T03:53:48;101321.88;;;-1.56;57.08
35918;BME280;22011;59.912;30.300;2023-03-01T03:56:16;101316.03;;;-1.61;57.24
35918;BME280;22011;59.912;30.300;2023-03-01T03:58:43;101321.97;;;-1.57;57.95
35918;BME280;22011;59.912;30.300;2023-03-01T04:01:11;101333.47;;;-1.61;57.19
35918;BME280;22011;59.912;30.300;2023-03-01T04:03:38;101332.72;;;-1.63;57.13
35918;BME280;22011;59.912;30.300;2023-03-01T04:06:07;101330.25;;;-1.67;57.09
35918;BME280;22011;59.912;30.300;2023-03-01T04:08:36;101338.22;;;-1.70;56.76
35918;BME280;22011;59.912;30.300;2023-03-01T04:11:04;101336.88;;;-1.78;57.30
35918;BME280;22011;59.912;30.300;2023-03-01T04:13:46;101335.28;;;-1.81;57.20
35918;BME280;22011;59.912;30.300;2023-03-01T04:16:13;101334.56;;;-1.84;57.86
35918;BME280;22011;59.912;30.300;2023-03-01T04:18:41;101320.81;;;-1.88;58.05
35918;BME280;22011;59.912;30.300;2023-03-01T04:21:08;101320.88;;;-1.89;58.28
35918;BME280;22011;59.912;30.300;2023-03-01T04:23:38;101323.56;;;-1.91;57.97
35918;BME280;22011;59.912;30.300;2023-03-01T04:26:06;101326.03;;;-1.88;57.93
35918;BME280;22011;59.912;30.300;2023-03-01T04:28:35;101325.66;;;-1.80;58.04
35918;BME280;22011;59.912;30.300;2023-03-01T04:31:05;101332.38;;;-1.75;58.18
35918;BME280;22011;59.912;30.300;2023-03-01T04:33:39;101327.16;;;-1.75;57.64
35918;BME280;22011;59.912;30.300;2023-03-01T04:36:08;101333.84;;;-1.69;57.90
35918;BME280;22011;59.912;30.300;2023-03-01T04:38:38;101331.84;;;-1.64;57.07
35918;BME280;22011;59.912;30.300;2023-03-01T04:41:07;101327.56;;;-1.65;57.55
35918;BME280;22011;59.912;30.300;2023-03-01T04:43:36;101325.94;;;-1.68;57.19
35918;BME280;22011;59.912;30.300;2023-03-01T04:46:07;101325.94;;;-1.68;57.45
35918;BME280;22011;59.912;30.300;2023-03-01T04:48:35;101329.63;;;-1.72;57.36
35918;BME280;22011;59.912;30.300;2023-03-01T04:51:04;101335.59;;;-1.70;56.74
35918;BME280;22011;59.912;30.300;2023-03-01T04:53:33;101350.50;;;-1.72;57.07
35918;BME280;22011;59.912;30.300;2023-03-01T04:56:04;101359.91;;;-1.68;57.39
35918;BME280;22011;59.912;30.300;2023-03-01T04:58:32;101356.28;;;-1.65;57.24
35918;BME280;22011;59.912;30.300;2023-03-01T05:00:59;101367.22;;;-1.57;57.84
35918;BME280;22011;59.912;30.300;2023-03-01T05:03:27;101370.06;;;-1.61;57.87
35918;BME280;22011;59.912;30.300;2023-03-01T05:05:58;101374.38;;;-1.60;58.13
35918;BME280;22011;59.912;30.300;2023-03-01T05:08:26;101371.13;;;-1.66;57.78
35918;BME280;22011;59.912;30.300;2023-03-01T05:10:54;101378.97;;;-1.66;58.04
35918;BME280;22011;59.912;30.300;2023-03-01T05:13:23;101377.25;;;-1.67;57.83
35918;BME280;22011;59.912;30.300;2023-03-01T05:15:56;101379.09;;;-1.69;57.96
35918;BME280;22011;59.912;30.300;2023-03-01T05:18:24;101369.50;;;-1.68;57.85
35918;BME280;22011;59.912;30.300;2023-03-01T05:20:52;101369.34;;;-1.65;57.77
35918;BME280;22011;59.912;30.300;2023-03-01T05:23:24;101378.03;;;-1.65;57.00
35918;BME280;22011;59.912;30.300;2023-03-01T05:25:51;101376.34;;;-1.66;57.74
35918;BME280;22011;59.912;30.300;2023-03-01T05:28:19;101383.13;;;-1.61;57.83
35918;BME280;22011;59.912;30.300;2023-03-01T05:30:48;101368.00;;;-1.55;57.58
35918;BME280;22011;59.912;30.300;2023-03-01T05:33:17;101370.69;;;-1.56;57.36
35918;BME280;22011;59.912;30.300;2023-03-01T05:35:45;101369.69;;;-1.54;57.67
35918;BME280;22011;59.912;30.300;2023-03-01T05:38:15;101367.16;;;-1.55;56.97
35918;BME280;22011;59.912;30.300;2023-03-01T05:40:43;101367.16;;;-1.55;57.67
35918;BME280;22011;59.912;30.300;2023-03-01T05:43:12;101375.84;;;-1.55;57.28
35918;BME280;22011;59.912;30.300;2023-03-01T05:45:41;101383.69;;;-1.55;57.86
35918;BME280;22011;59.912;30.300;2023-03-01T05:48:10;101378.47;;;-1.55;57.71
35918;BME280;22011;59.912;30.300;2023-03-01T05:50:40;101386.38;;;-1.56;57.90
35918;BME280;22011;59.912;30.300;2023-03-01T05:53:11;101382.53;;;-1.49;57.20
35918;BME280;22011;59.912;30.300;2023-03-01T05:55:39;101376.22;;;-1.26;57.30
35918;BME280;22011;59.912;30.300;2023-03-01T05:58:07;101380.00;;;-1.51;57.24
35918;BME280;22011;59.912;30.300;2023-03-01T06:00:36;101383.69;;;-1.55;57.44
35918;BME280;22011;59.912;30.300;2023-03-01T06:03:04;101378.38;;;-1.53;57.43
35918;BME280;22011;59.912;30.300;2023-03-01T06:05:32;101380.00;;;-1.51;57.77
35918;BME280;22011;59.912;30.300;2023-03-01T06:08:00;101370.53;;;-1.53;57.15
35918;BME280;22011;59.912;30.300;2023-03-01T06:10:29;101374.22;;;-1.57;57.43
35918;BME280;22011;59.912;30.300;2023-03-01T06:12:56;101373.44;;;-1.59;56.94
35918;BME280;22011;59.912;30.300;2023-03-01T06:15:25;101369.13;;;-1.60;57.28
35918;BME280;22011;59.912;30.300;2023-03-01T06:17:54;101382.06;;;-1.57;57.68
35918;BME280;22011;59.912;30.300;2023-03-01T06:20:23;101380.25;;;-1.38;57.66
35918;BME280;22011;59.912;30.300;2023-03-01T06:22:52;101374.84;;;-1.52;57.05
35918;BME280;22011;59.912;30.300;2023-03-01T06:25:21;101372.09;;;-1.49;56.69
35918;BME280;22011;59.912;30.300;2023-03-01T06:27:50;101366.69;;;-1.27;56.74
35918;BME280;22011;59.912;30.300;2023-03-01T06:30:19;101372.78;;;-1.46;57.55
35918;BME280;22011;59.912;30.300;2023-03-01T06:32:47;101378.88;;;-1.45;57.78
35918;BME280;22011;59.912;30.300;2023-03-01T06:35:16;101370.25;;;-1.47;57.34
35918;BME280;22011;59.912;30.300;2023-03-01T06:37:44;101371.25;;;-1.50;57.61
35918;BME280;22011;59.912;30.300;2023-03-01T06:40:14;101375.34;;;-1.44;57.84
35918;BME280;22011;59.912;30.300;2023-03-01T06:42:48;101369.34;;;-1.46;57.72
35918;BME280;22011;59.912;30.300;2023-03-01T06:45:17;101371.72;;;-1.42;57.79
35918;BME280;22011;59.912;30.300;2023-03-01T06:47:45;101382.09;;;-1.40;57.75
35918;BME280;22011;59.912;30.300;2023-03-01T06:50:14;101373.81;;;-1.31;57.42
35918;BME280;22011;59.912;30.300;2023-03-01T06:52:41;101380.75;;;-1.30;57.21
35918;BME280;22011;59.912;30.300;2023-03-01T06:55:10;101378.28;;;-1.33;57.51
35918;BME280;22011;59.912;30.300;2023-03-01T06:57:39;101381.66;;;-1.31;57.74
35918;BME280;22011;59.912;30.300;2023-03-01T07:00:08;101369.50;;;-1.32;57.69
35918;BME280;22011;59.912;30.300;2023-03-01T07:02:36;101375.81;;;-1.36;57.75
35918;BME280;22011;59.912;30.300;2023-03-01T07:05:04;101380.88;;;-1.33;57.56
35918;BME280;22011;59.912;30.300;2023-03-01T07:07:32;101381.66;;;-1.31;57.16
35918;BME280;22011;59.912;30.300;2023-03-01T07:09:59;101381.28;;;-1.23;57.29
35918;BME280;22011;59.912;30.300;2023-03-01T07:12:27;101372.59;;;-1.24;57.13
35918;BME280;22011;59.912;30.300;2023-03-01T07:14:56;101382.06;;;-1.21;57.95
35918;BME280;22011;59.912;30.300;2023-03-01T07:17:23;101376.13;;;-1.25;57.34
35918;BME280;22011;59.912;30.300;2023-03-01T07:19:51;101382.06;;;-1.21;57.76
35918;BME280;22011;59.912;30.300;2023-03-01T07:22:18;101370.59;;;-1.19;58.07
35918;BME280;22011;59.912;30.300;2023-03-01T07:24:46;101378.53;;;-1.20;57.41
35918;BME280;22011;59.912;30.300;2023-03-01T07:27:13;101375.22;;;-1.24;58.74
35918;BME280;22011;59.912;30.300;2023-03-01T07:29:41;101384.75;;;-1.23;58.16
35918;BME280;22011;59.912;30.300;2023-03-01T07:32:10;101378.38;;;-1.17;58.61
35918;BME280;22011;59.912;30.300;2023-03-01T07:34:38;101375.16;;;-1.22;58.47
35918;BME280;22011;59.912;30.300;2023-03-01T07:37:06;101381.38;;;-1.25;58.48
35918;BME280;22011;59.912;30.300;2023-03-01T07:39:33;101368.44;;;-1.28;59.14
35918;BME280;22011;59.912;30.300;2023-03-01T07:42:01;101372.81;;;-1.28;59.14
35918;BME280;22011;59.912;30.300;2023-03-01T07:44:28;101364.59;;;-1.21;58.91
35918;BME280;22011;59.912;30.300;2023-03-01T07:46:56;101371.53;;;-1.20;58.98
35918;BME280;22011;59.912;30.300;2023-03-01T07:49:25;101372.22;;;-1.16;58.67
35918;BME280;22011;59.912;30.300;2023-03-01T07:51:53;101364.09;;;-1.10;58.40
35918;BME280;22011;59.912;30.300;2023-03-01T07:54:21;101359.53;;;-1.07;58.21
35918;BME280;22011;59.912;30.300;2023-03-01T07:56:48;101346.91;;;-0.99;57.96
35918;BME280;22011;59.912;30.300;2023-03-01T07:59:16;101348.13;;;-0.88;57.94
35918;BME280;22011;59.912;30.300;2023-03-01T08:01:43;101342.28;;;-0.93;57.82
35918;BME280;22011;59.912;30.300;2023-03-01T08:04:11;101333.34;;;-0.89;57.58
35918;BME280;22011;59.912;30.300;2023-03-01T08:06:40;101324.13;;;-0.79;57.97
35918;BME280;22011;59.912;30.300;2023-03-01T08:09:07;101325.56;;;-0.74;57.50
35918;BME280;22011;59.912;30.300;2023-03-01T08:11:35;101332.34;;;-0.70;57.45
35918;BME280;22011;59.912;30.300;2023-03-01T08:14:03;101340.41;;;-0.57;57.97
35918;BME280;22011;59.912;30.300;2023-03-01T08:16:31;101335.53;;;-0.47;57.55
35918;BME280;22011;59.912;30.300;2023-03-01T08:19:03;101332.34;;;-0.37;58.73
35918;BME280;22011;59.912;30.300;2023-03-01T08:21:32;101319.75;;;-0.46;57.70
35918;BME280;22011;59.912;30.300;2023-03-01T08:24:02;101327.75;;;-0.49;58.00
35918;BME280;22011;59.912;30.300;2023-03-01T08:26:30;101331.31;;;-0.50;58.55
35918;BME280;22011;59.912;30.300;2023-03-01T08:28:59;101336.63;;;-0.51;58.39
35918;BME280;22011;59.912;30.300;2023-03-01T08:31:29;101347.25;;;-0.54;58.36
35918;BME280;22011;59.912;30.300;2023-03-01T08:34:00;101338.22;;;-0.49;58.70
35918;BME280;22011;59.912;30.300;2023-03-01T08:36:30;101338.84;;;-0.44;58.29
35918;BME280;22011;59.912;30.300;2023-03-01T08:38:58;101342.41;;;-0.29;57.86
35918;BME280;22011;59.912;30.300;2023-03-01T08:41:27;101338.53;;;-0.22;58.04
35918;BME280;22011;59.912;30.300;2023-03-01T08:43:55;101331.16;;;-0.31;58.42
35918;BME280;22011;59.912;30.300;2023-03-01T08:46:25;101336.41;;;-0.31;59.29
35918;BME280;22011;59.912;30.300;2023-03-01T08:48:53;101345.59;;;-0.40;60.21
35918;BME280;22011;59.912;30.300;2023-03-01T08:51:21;101342.06;;;-0.39;60.52
35918;BME280;22011;59.912;30.300;2023-03-01T08:53:49;101341.28;;;-0.41;60.77
35918;BME280;22011;59.912;30.300;2023-03-01T08:56:17;101337.66;;;-0.38;61.25
35918;BME280;22011;59.912;30.300;2023-03-01T08:58:47;101333.47;;;-0.25;61.18
35918;BME280;22011;59.912;30.300;2023-03-01T09:01:17;101333.66;;;-0.12;61.33
35918;BME280;22011;59.912;30.300;2023-03-01T09:03:45;101323.53;;;-0.03;60.85
35918;BME280;22011;59.912;30.300;2023-03-01T09:06:14;101331.84;;;0.04;60.58
35918;BME280;22011;59.912;30.300;2023-03-01T09:08:44;101326.03;;;0.15;60.50
35918;BME280;22011;59.912;30.300;2023-03-01T09:11:13;101327.88;;;0.28;59.91
35918;BME280;22011;59.912;30.300;2023-03-01T09:13:42;101319.25;;;0.42;59.54
35918;BME280;22011;59.912;30.300;2023-03-01T09:16:12;101328.53;;;0.48;59.67
35918;BME280;22011;59.912;30.300;2023-03-01T09:18:40;101321.97;;;0.41;60.29
35918;BME280;22011;59.912;30.300;2023-03-01T09:21:10;101321.13;;;0.40;60.22
35918;BME280;22011;59.912;30.300;2023-03-01T09:23:39;101314.94;;;0.41;60.99
35918;BME280;22011;59.912;30.300;2023-03-01T09:26:08;101302.75;;;0.40;60.95
35918;BME280;22011;59.912;30.300;2023-03-01T09:28:36;101311.91;;;0.33;61.39
35918;BME280;22011;59.912;30.300;2023-03-01T09:31:04;101318.75;;;0.36;61.42
35918;BME280;22011;59.912;30.300;2023-03-01T09:33:33;101314.00;;;0.42;61.99
35918;BME280;22011;59.912;30.300;2023-03-01T09:36:03;101314.69;;;0.46;61.47
35918;BME280;22011;59.912;30.300;2023-03-01T09:38:31;101307.56;;;0.48;61.19
35918;BME280;22011;59.912;30.300;2023-03-01T09:40:59;101310.88;;;0.51;60.42
35918;BME280;22011;59.912;30.300;2023-03-01T09:43:39;101324.28;;;0.61;61.14
35918;BME280;22011;59.912;30.300;2023-03-01T09:46:11;101310.69;;;0.54;60.47
35918;BME280;22011;59.912;30.300;2023-03-01T09:48:46;101306.13;;;0.58;60.40
35918;BME280;22011;59.912;30.300;2023-03-01T09:51:19;101300.13;;;0.56;60.11
35918;BME280;22011;59.912;30.300;2023-03-01T09:53:49;101298.91;;;0.61;60.04
35918;BME280;22011;59.912;30.300;2023-03-01T09:56:20;101296.88;;;0.67;60.73
35918;BME280;22011;59.912;30.300;2023-03-01T09:58:53;101302.13;;;0.67;60.91
35918;BME280;22011;59.912;30.300;2023-03-01T10:01:31;101300.34;;;0.67;61.60
35918;BME280;22011;59.912;30.300;2023-03-01T10:04:12;101298.38;;;0.71;62.00
35918;BME280;22011;59.912;30.300;2023-03-01T10:06:49;101293.31;;;0.68;62.12
35918;BME280;22011;59.912;30.300;2023-03-01T10:09:19;101296.03;;;0.66;61.66
35918;BME280;22011;59.912;30.300;2023-03-01T10:11:50;101277.31;;;0.72;61.15
35918;BME280;22011;59.912;30.300;2023-03-01T10:14:28;101271.34;;;0.84;61.59
35918;BME280;22011;59.912;30.300;2023-03-01T10:16:59;101282.38;;;0.75;61.00
35918;BME280;22011;59.912;30.300;2023-03-01T10:19:33;101285.75;;;0.77;61.60
35918;BME280;22011;59.912;30.300;2023-03-01T10:22:09;101277.81;;;0.79;61.29
35918;BME280;22011;59.912;30.300;2023-03-01T10:24:38;101262.25;;;0.76;61.04
35918;BME280;22011;59.912;30.300;2023-03-01T10:27:09;101258.22;;;0.84;60.96
35918;BME280;22011;59.912;30.300;2023-03-01T10:29:46;101247.56;;;0.87;60.87
35918;BME280;22011;59.912;30.300;2023-03-01T10:32:17;101262.94;;;0.93;60.81
35918;BME280;22011;59.912;30.300;2023-03-01T10:34:46;101248.03;;;1.08;60.50
35918;BME280;22011;59.912;30.300;2023-03-01T10:37:16;101251.31;;;1.12;59.97
35918;BME280;22011;59.912;30.300;2023-03-01T10:39:55;101236.88;;;1.19;60.97
35918;BME280;22011;59.912;30.300;2023-03-01T10:42:27;101241.00;;;1.09;60.82
35918;BME280;22011;59.912;30.300;2023-03-01T10:44:56;101236.16;;;1.03;60.76
35918;BME280;22011;59.912;30.300;2023-03-01T10:47:25;101250.19;;;1.02;60.41
35918;BME280;22011;59.912;30.300;2023-03-01T10:49:57;101235.00;;;1.07;61.32
35918;BME280;22011;59.912;30.300;2023-03-01T10:52:31;101231.75;;;1.03;61.85
35918;BME280;22011;59.912;30.300;2023-03-01T10:55:01;101226.59;;;1.02;62.68
35918;BME280;22011;59.912;30.300;2023-03-01T10:57:35;101224.88;;;1.15;63.33
35918;BME280;22011;59.912;30.300;2023-03-01T11:00:22;101210.06;;;1.28;63.95
35918;BME280;22011;59.912;30.300;2023-03-01T11:03:02;101219.16;;;1.22;64.50
35918;BME280;22011;59.912;30.300;2023-03-01T11:05:31;101203.13;;;1.13;64.31
35918;BME280;22011;59.912;30.300;2023-03-01T11:08:01;101200.31;;;1.16;64.66
35918;BME280;22011;59.912;30.300;2023-03-01T11:10:30;101199.47;;;1.15;65.11
35918;BME280;22011;59.912;30.300;2023-03-01T11:13:07;101194.69;;;1.22;65.78
35918;BME280;22011;59.912;30.300;2023-03-01T11:15:35;101190.38;;;1.07;65.35
35918;BME280;22011;59.912;30.300;2023-03-01T11:18:03;101185.34;;;1.04;65.80
35918;BME280;22011;59.912;30.300;2023-03-01T11:20:34;101180.63;;;1.09;66.16
35918;BME280;22011;59.912;30.300;2023-03-01T11:23:04;101173.78;;;1.06;66.08
35918;BME280;22011;59.912;30.300;2023-03-01T11:25:37;101164.13;;;1.07;66.22
35918;BME280;22011;59.912;30.300;2023-03-01T11:28:07;101165.84;;;1.08;66.81
35918;BME280;22011;59.912;30.300;2023-03-01T11:30:48;101149.91;;;1.11;66.92
35918;BME280;22011;59.912;30.300;2023-03-01T11:33:23;101161.34;;;1.10;67.10
35918;BME280;22011;59.912;30.300;2023-03-01T11:36:01;101158.59;;;1.11;67.51
35918;BME280;22011;59.912;30.300;2023-03-01T11:38:33;101164.13;;;1.07;67.54
35918;BME280;22011;59.912;30.300;2023-03-01T11:41:05;101154.31;;;1.10;68.03
35918;BME280;22011;59.912;30.300;2023-03-01T11:43:40;101162.25;;;1.09;67.93
35918;BME280;22011;59.912;30.300;2023-03-01T11:46:35;101155.41;;;1.20;68.45
35918;BME280;22011;59.912;30.300;2023-03-01T11:49:17;101150.84;;;1.10;68.79
35918;BME280;22011;59.912;30.300;2023-03-01T11:52:01;101145.78;;;1.07;69.06
35918;BME280;22011;59.912;30.300;2023-03-01T11:54:41;101153.47;;;1.10;69.26
35918;BME280;22011;59.912;30.300;2023-03-01T11:57:16;101140.44;;;1.08;69.09
35918;BME280;22011;59.912;30.300;2023-03-01T12:00:02;101156.91;;;1.24;69.61
35918;BME280;22011;59.912;30.300;2023-03-01T12:08:34;101136.69;;;1.12;70.07
35918;BME280;22011;59.912;30.300;2023-03-01T12:11:10;101135.19;;;1.08;70.14
35918;BME280;22011;59.912;30.300;2023-03-01T12:14:08;101130.31;;;1.16;70.79
35918;BME280;22011;59.912;30.300;2023-03-01T12:17:01;101131.44;;;1.12;70.92
35918;BME280;22011;59.912;30.300;2023-03-01T12:19:41;101129.28;;;1.05;71.07
35918;BME280;22011;59.912;30.300;2023-03-01T12:22:25;101116.66;;;0.97;70.45
35918;BME280;22011;59.912;30.300;2023-03-01T12:25:14;101125.19;;;1.01;70.85
35918;BME280;22011;59.912;30.300;2023-03-01T12:28:07;101113.44;;;1.06;70.99
35918;BME280;22011;59.912;30.300;2023-03-01T12:30:49;101114.13;;;0.95;70.70
35918;BME280;22011;59.912;30.300;2023-03-01T12:33:27;101111.06;;;0.89;71.17
35918;BME280;22011;59.912;30.300;2023-03-01T12:36:26;101104.78;;;0.91;72.05
35918;BME280;22011;59.912;30.300;2023-03-01T12:39:06;101108.63;;;0.86;71.92
35918;BME280;22011;59.912;30.300;2023-03-01T12:41:46;101096.16;;;0.75;72.59
35918;BME280;22011;59.912;30.300;2023-03-01T12:44:30;101088.09;;;0.78;73.37
35918;BME280;22011;59.912;30.300;2023-03-01T12:47:26;101089.41;;;0.85;73.97
35918;BME280;22011;59.912;30.300;2023-03-01T12:50:03;101091.09;;;0.72;74.28
35918;BME280;22011;59.912;30.300;2023-03-01T12:52:38;101082.59;;;0.69;74.49
35918;BME280;22011;59.912;30.300;2023-03-01T12:55:23;101083.06;;;0.61;75.19
35918;BME280;22011;59.912;30.300;2023-03-01T12:58:00;101086.41;;;0.63;75.92
35918;BME280;22011;59.912;30.300;2023-03-01T13:00:34;101088.28;;;0.61;75.96
35918;BME280;22011;59.912;30.300;2023-03-01T13:03:12;101079.69;;;0.59;76.56
35918;BME280;22011;59.912;30.300;2023-03-01T13:05:54;101074.44;;;0.59;76.66
35918;BME280;22011;59.912;30.300;2023-03-01T13:08:29;101072.38;;;0.64;76.73